Bacone, Oklahoma
Current Conditions -  °F | °C
As of 8:53 AM on Thursday 23 Oct 2014 (Local Time) from KMKO Reporting Station
Overcast Overcast  
Wind Chill: 57°   Ceiling: 7000
Heat Index: 57°   Visibility: 10mi
Dew Point: 51°   Wind: 5mph
Humidity: 81%   Direction: 160°SSE
Pressure: 30.19"   Gusts: NA
Location:  35.6818°N, 95.3578°W
Report Text: KMKO 231353Z AUTO 16004KT 10SM SCT049 OVC070 14/11 A3019 RMK AO2 SLP220 T01390106
Loading
Personal Weather Stations






























Interactive Weather Map
Tropical Storm Tracking
New forecast layout! Learn more

10-Day Weather Forecast

Advertisements
Track Severe Weather on mobile